createdAt,value
2019-05-05T00:00:45.211Z,98815.56
2019-05-05T00:03:09.230Z,98824.80
2019-05-05T00:05:15.915Z,98819.16
2019-05-05T00:07:25.385Z,98825.32
2019-05-05T00:09:34.553Z,98821.38
2019-05-05T00:11:42.107Z,98824.00
2019-05-05T00:13:55.146Z,98818.73
2019-05-05T00:16:15.071Z,98820.05
2019-05-05T00:18:25.147Z,98821.36
2019-05-05T00:20:31.092Z,98827.50
2019-05-05T00:22:37.541Z,98831.89
2019-05-05T00:24:45.203Z,98839.35
2019-05-05T00:26:51.687Z,98834.92
2019-05-05T00:28:58.135Z,98836.72
2019-05-05T00:31:04.758Z,98843.76
2019-05-05T00:33:11.136Z,98841.56
2019-05-05T00:35:17.653Z,98843.32
2019-05-05T00:37:25.710Z,98832.34
2019-05-05T00:39:34.324Z,98827.98
2019-05-05T00:41:40.469Z,98829.78
2019-05-05T00:43:46.871Z,98836.38
2019-05-05T00:45:55.623Z,98840.78
2019-05-05T00:48:04.695Z,98847.86
2019-05-05T00:50:14.557Z,98851.81
2019-05-05T00:52:22.231Z,98853.58
2019-05-05T00:54:28.617Z,98854.45
2019-05-05T00:56:35.000Z,98858.84
2019-05-05T00:58:44.628Z,98865.43
2019-05-05T01:00:54.765Z,98868.50
2019-05-05T01:03:00.963Z,98868.11
2019-05-05T01:05:11.736Z,98878.64
2019-05-05T01:07:18.118Z,98874.70
2019-05-05T01:09:26.342Z,98889.22
2019-05-05T01:11:32.748Z,98891.82
2019-05-05T01:13:39.125Z,98885.23
2019-05-05T01:15:45.728Z,98884.80
2019-05-05T01:17:52.538Z,98888.34
2019-05-05T01:20:03.082Z,98881.36
2019-05-05T01:22:07.350Z,98891.89
2019-05-05T01:24:14.370Z,98881.80
2019-05-05T01:26:21.080Z,98891.48
2019-05-05T01:28:27.637Z,98898.92
2019-05-05T01:30:35.763Z,98900.27
2019-05-05T01:32:44.588Z,98900.26
2019-05-05T01:34:51.141Z,98898.07
2019-05-05T01:36:59.193Z,98901.13
2019-05-05T01:39:17.537Z,98908.16
2019-05-05T01:41:37.307Z,98908.13
2019-05-05T01:43:45.176Z,98911.22
2019-05-05T01:45:51.936Z,98919.08
2019-05-05T01:47:58.458Z,98924.34
2019-05-05T01:50:17.638Z,98925.20
2019-05-05T01:52:15.472Z,98931.33
2019-05-05T01:54:24.870Z,98935.24
2019-05-05T01:56:31.684Z,98934.80
2019-05-05T01:58:38.220Z,98933.05
2019-05-05T02:00:45.272Z,98931.27
2019-05-05T02:02:51.882Z,98935.20
2019-05-05T02:04:58.260Z,98937.81
2019-05-05T02:07:06.110Z,98939.56
2019-05-05T02:09:12.659Z,98946.56
2019-05-05T02:11:19.116Z,98948.75
2019-05-05T02:13:25.497Z,98950.05
2019-05-05T02:15:34.182Z,98957.92
2019-05-05T02:17:40.273Z,98959.23
2019-05-05T02:19:46.849Z,98966.22
2019-05-05T02:21:54.738Z,98966.20
2019-05-05T02:24:01.580Z,98973.16
2019-05-05T02:26:09.431Z,98977.11
2019-05-05T02:28:15.979Z,98984.98
2019-05-05T02:30:30.138Z,98988.02
2019-05-05T02:32:40.993Z,98995.03
2019-05-05T02:34:49.099Z,98995.03
2019-05-05T02:36:56.607Z,98989.34
2019-05-05T02:39:05.371Z,98993.28
2019-05-05T02:41:15.464Z,98982.30
2019-05-05T02:43:25.033Z,98976.16
2019-05-05T02:46:00.612Z,98975.72
2019-05-05T02:48:10.066Z,98971.79
2019-05-05T02:50:18.139Z,98984.02
2019-05-05T02:52:24.825Z,98987.48
2019-05-05T02:54:34.774Z,98982.20
2019-05-05T02:56:47.436Z,98990.52
2019-05-05T02:58:58.737Z,98994.03
2019-05-05T03:01:10.491Z,98995.76
2019-05-05T03:03:17.084Z,98994.91
2019-05-05T03:05:23.917Z,98997.09
2019-05-05T03:07:31.406Z,99002.80
2019-05-05T03:09:38.797Z,99012.88
2019-05-05T03:11:49.122Z,99015.09
2019-05-05T03:13:59.598Z,99008.55
2019-05-05T03:16:27.887Z,99011.97
2019-05-05T03:18:34.561Z,99005.39
2019-05-05T03:20:41.098Z,99010.19
2019-05-05T03:22:47.625Z,99017.66
2019-05-05T03:24:54.277Z,99018.09
2019-05-05T03:27:03.692Z,99022.45
2019-05-05T03:29:14.625Z,99017.64
2019-05-05T03:31:21.545Z,99023.78
2019-05-05T03:33:28.177Z,99028.58
2019-05-05T03:35:34.986Z,99041.23
2019-05-05T03:37:41.589Z,99043.80
2019-05-05T03:39:50.892Z,99051.20
2019-05-05T03:41:57.974Z,99058.63
2019-05-05T03:44:10.151Z,99067.83
2019-05-05T03:46:16.766Z,99071.72
2019-05-05T03:48:24.183Z,99072.63
2019-05-05T03:50:30.981Z,99065.63
2019-05-05T03:52:37.922Z,99073.52
2019-05-05T03:54:45.509Z,99069.57
2019-05-05T03:56:54.550Z,99080.95
2019-05-05T03:59:02.054Z,99084.48
2019-05-05T04:01:18.655Z,99090.67
2019-05-05T04:03:25.034Z,99097.20
2019-05-05T04:05:34.042Z,99099.00
2019-05-05T04:07:40.379Z,99101.64
2019-05-05T04:09:47.141Z,99109.95
2019-05-05T04:11:54.048Z,99099.34
2019-05-05T04:14:01.093Z,99103.73
2019-05-05T04:16:13.620Z,99117.27
2019-05-05T04:18:23.732Z,99115.92
2019-05-05T04:20:31.192Z,99118.49
2019-05-05T04:22:37.557Z,99123.29
2019-05-05T04:24:43.978Z,99123.69
2019-05-05T04:26:50.375Z,99132.83
2019-05-05T04:28:56.750Z,99139.80
2019-05-05T04:31:04.245Z,99148.51
2019-05-05T04:33:10.801Z,99157.26
2019-05-05T04:35:17.244Z,99151.23
2019-05-05T04:37:24.045Z,99156.45
2019-05-05T04:39:30.502Z,99163.89
2019-05-05T04:41:37.249Z,99163.48
2019-05-05T04:43:44.309Z,99169.92
2019-05-05T04:45:50.821Z,99169.47
2019-05-05T04:47:58.853Z,99175.12
2019-05-05T04:50:09.818Z,99174.23
2019-05-05T04:52:17.840Z,99176.78
2019-05-05T04:54:28.655Z,99184.65
2019-05-05T04:56:35.321Z,99198.19
2019-05-05T04:58:44.007Z,99197.66
2019-05-05T05:00:50.599Z,99200.27
2019-05-05T05:02:56.778Z,99204.75
2019-05-05T05:05:14.538Z,99208.77
2019-05-05T05:07:21.066Z,99204.75
2019-05-05T05:09:27.488Z,99218.22
2019-05-05T05:11:33.862Z,99209.95
2019-05-05T05:13:40.252Z,99219.26
2019-05-05T05:15:46.731Z,99223.29
2019-05-05T05:17:57.396Z,99226.42
2019-05-05T05:20:06.003Z,99228.19
2019-05-05T05:22:13.701Z,99229.14
2019-05-05T05:24:20.279Z,99230.02
2019-05-05T05:26:26.660Z,99240.11
2019-05-05T05:28:34.215Z,99229.57
2019-05-05T05:30:40.716Z,99229.57
2019-05-05T05:32:47.085Z,99234.84
2019-05-05T05:34:54.248Z,99231.30
2019-05-05T05:37:00.977Z,99234.77
2019-05-05T05:39:10.029Z,99232.97
2019-05-05T05:41:18.081Z,99240.42
2019-05-05T05:43:26.093Z,99247.89
2019-05-05T05:45:36.826Z,99250.92
2019-05-05T05:48:00.872Z,99252.73
2019-05-05T05:50:14.308Z,99265.03
2019-05-05T05:52:20.722Z,99266.21
2019-05-05T05:54:27.613Z,99268.34
2019-05-05T05:56:34.387Z,99269.17
2019-05-05T05:58:40.847Z,99276.58
2019-05-05T06:00:47.242Z,99276.62
2019-05-05T06:02:54.575Z,99272.70
2019-05-05T06:05:01.162Z,99281.95
2019-05-05T06:07:08.053Z,99285.94
2019-05-05T06:09:14.895Z,99287.30
2019-05-05T06:11:23.782Z,99284.19
2019-05-05T06:13:29.776Z,99280.14
2019-05-05T06:15:36.871Z,99288.81
2019-05-05T06:17:43.584Z,99292.70
2019-05-05T06:19:50.156Z,99292.67
2019-05-05T06:21:56.684Z,99291.75
2019-05-05T06:24:04.485Z,99297.84
2019-05-05T06:26:11.204Z,99299.53
2019-05-05T06:28:17.735Z,99299.55
2019-05-05T06:30:24.501Z,99300.06
2019-05-05T06:32:31.083Z,99306.29
2019-05-05T06:34:37.484Z,99304.09
2019-05-05T06:36:44.482Z,99309.91
2019-05-05T06:38:51.207Z,99316.55
2019-05-05T06:41:15.240Z,99320.45
2019-05-05T06:43:32.052Z,99321.34
2019-05-05T06:45:45.763Z,99323.95
2019-05-05T06:47:53.712Z,99335.73
2019-05-05T06:50:00.272Z,99337.00
2019-05-05T06:52:06.812Z,99341.90
2019-05-05T06:54:13.722Z,99343.35
2019-05-05T06:56:20.355Z,99349.05
2019-05-05T06:58:27.899Z,99343.80
2019-05-05T07:00:34.762Z,99343.13
2019-05-05T07:02:41.180Z,99357.27
2019-05-05T07:04:47.586Z,99358.94
2019-05-05T07:06:57.065Z,99356.66
2019-05-05T07:09:02.036Z,99360.68
2019-05-05T07:11:10.071Z,99359.25
2019-05-05T07:13:16.500Z,99370.66
2019-05-05T07:15:23.741Z,99380.28
2019-05-05T07:17:33.668Z,99393.69
2019-05-05T07:19:39.542Z,99396.14
2019-05-05T07:21:45.993Z,99389.84
2019-05-05T07:23:53.856Z,99400.89
2019-05-05T07:26:04.118Z,99397.52
2019-05-05T07:28:10.217Z,99395.05
2019-05-05T07:30:16.937Z,99397.70
2019-05-05T07:32:24.518Z,99401.25
2019-05-05T07:34:33.487Z,99392.69
2019-05-05T07:36:44.639Z,99400.88
2019-05-05T07:38:51.078Z,99396.59
2019-05-05T07:40:57.535Z,99388.39
2019-05-05T07:43:04.602Z,99386.45
2019-05-05T07:45:20.353Z,99383.60
2019-05-05T07:47:19.829Z,99390.79
2019-05-05T07:49:26.315Z,99395.55
2019-05-05T07:51:33.598Z,99409.51
2019-05-05T07:53:40.151Z,99404.17
2019-05-05T07:55:46.569Z,99397.24
2019-05-05T07:57:53.793Z,99394.88
2019-05-05T08:00:00.443Z,99403.32
2019-05-05T08:02:07.001Z,99397.17
2019-05-05T08:04:13.775Z,99395.44
2019-05-05T08:06:20.400Z,99392.85
2019-05-05T08:08:26.797Z,99400.34
2019-05-05T08:10:34.360Z,99390.66
2019-05-05T08:12:41.171Z,99402.09
2019-05-05T08:14:47.569Z,99397.70
2019-05-05T08:17:11.846Z,99405.15
2019-05-05T08:19:35.970Z,99406.05
2019-05-05T08:21:43.716Z,99404.27
2019-05-05T08:23:54.003Z,99417.00
2019-05-05T08:26:05.071Z,99402.52
2019-05-05T08:28:14.685Z,99406.06
2019-05-05T08:30:26.025Z,99414.81
2019-05-05T08:32:36.609Z,99414.34
2019-05-05T08:34:55.058Z,99422.64
2019-05-05T08:36:51.084Z,99424.02
2019-05-05T08:38:57.471Z,99417.89
2019-05-05T08:41:04.561Z,99426.19
2019-05-05T08:43:11.153Z,99424.41
2019-05-05T08:45:17.838Z,99416.52
2019-05-05T08:47:24.890Z,99416.11
2019-05-05T08:49:34.584Z,99424.50
2019-05-05T08:51:40.488Z,99425.80
2019-05-05T08:53:48.416Z,99424.06
2019-05-05T08:55:55.059Z,99427.59
2019-05-05T08:58:01.440Z,99425.85
2019-05-05T09:00:10.040Z,99428.49
2019-05-05T09:02:16.556Z,99430.67
2019-05-05T09:04:24.685Z,99421.41
2019-05-05T09:06:31.091Z,99420.98
2019-05-05T09:08:37.468Z,99424.09
2019-05-05T09:10:44.833Z,99443.44
2019-05-05T09:12:51.595Z,99445.63
2019-05-05T09:14:58.914Z,99440.31
2019-05-05T09:17:05.423Z,99446.90
2019-05-05T09:19:15.456Z,99447.36
2019-05-05T09:21:23.915Z,99451.25
2019-05-05T09:23:31.619Z,99443.78
2019-05-05T09:25:37.862Z,99445.53
2019-05-05T09:27:48.537Z,99441.52
2019-05-05T09:29:56.083Z,99436.28
2019-05-05T09:32:04.008Z,99441.60
2019-05-05T09:34:10.658Z,99449.52
2019-05-05T09:36:17.119Z,99446.44
2019-05-05T09:38:25.140Z,99455.70
2019-05-05T09:40:40.708Z,99454.31
2019-05-05T09:42:47.251Z,99463.48
2019-05-05T09:44:54.212Z,99456.02
2019-05-05T09:47:01.220Z,99454.31
2019-05-05T09:49:07.687Z,99455.62
2019-05-05T09:51:17.153Z,99457.38
2019-05-05T09:53:27.344Z,99452.20
2019-05-05T09:55:33.623Z,99451.34
2019-05-05T09:57:40.163Z,99459.71
2019-05-05T09:59:46.674Z,99457.51
2019-05-05T10:01:54.239Z,99455.27
2019-05-05T10:04:10.960Z,99466.31
2019-05-05T10:06:17.608Z,99461.89
2019-05-05T10:08:24.062Z,99468.52
2019-05-05T10:10:30.558Z,99464.54
2019-05-05T10:12:37.091Z,99464.98
2019-05-05T10:14:44.871Z,99466.74
2019-05-05T10:16:51.465Z,99459.25
2019-05-05T10:18:57.980Z,99465.41
2019-05-05T10:21:04.782Z,99471.48
2019-05-05T10:23:11.322Z,99461.69
2019-05-05T10:25:26.247Z,99458.91
2019-05-05T10:27:44.627Z,99460.17
2019-05-05T10:29:40.857Z,99468.45
2019-05-05T10:31:47.311Z,99471.70
2019-05-05T10:33:55.410Z,99468.09
2019-05-05T10:36:01.918Z,99467.22
2019-05-05T10:38:08.518Z,99467.58
2019-05-05T10:40:16.957Z,99461.98
2019-05-05T10:42:25.092Z,99463.09
2019-05-05T10:44:31.482Z,99463.27
2019-05-05T10:46:37.911Z,99471.52
2019-05-05T10:48:44.626Z,99478.05
2019-05-05T10:50:53.617Z,99495.38
2019-05-05T10:52:59.447Z,99483.88
2019-05-05T10:55:07.763Z,99494.47
2019-05-05T10:57:15.536Z,99493.22
2019-05-05T10:59:27.451Z,99494.93
2019-05-05T11:01:33.906Z,99497.70
2019-05-05T11:03:40.464Z,99516.97
2019-05-05T11:05:46.995Z,99529.63
2019-05-05T11:07:53.825Z,99522.34
2019-05-05T11:10:00.844Z,99506.81
2019-05-05T11:12:08.295Z,99501.40
2019-05-05T11:14:14.879Z,99512.81
2019-05-05T11:16:21.264Z,99519.22
2019-05-05T11:18:28.169Z,99519.83
2019-05-05T11:20:35.208Z,99528.89
2019-05-05T11:22:43.702Z,99538.64
2019-05-05T11:24:59.943Z,99532.42
2019-05-05T11:27:01.379Z,99534.06
2019-05-05T11:29:07.869Z,99530.95
2019-05-05T11:31:14.457Z,99535.41
2019-05-05T11:33:23.727Z,99538.97
2019-05-05T11:35:40.927Z,99535.51
2019-05-05T11:37:47.331Z,99542.56
2019-05-05T11:39:53.746Z,99546.89
2019-05-05T11:42:00.560Z,99543.81
2019-05-05T11:44:08.897Z,99552.32
2019-05-05T11:46:15.432Z,99549.06
2019-05-05T11:48:24.030Z,99553.47
2019-05-05T11:50:30.041Z,99548.08
2019-05-05T11:52:36.509Z,99542.25
2019-05-05T11:54:43.868Z,99536.69
2019-05-05T11:56:50.504Z,99539.62
2019-05-05T11:58:57.157Z,99536.84
2019-05-05T12:01:04.021Z,99534.77
2019-05-05T12:03:10.539Z,99524.58
2019-05-05T12:05:17.018Z,99529.78
2019-05-05T12:07:23.733Z,99540.61
2019-05-05T12:09:33.734Z,99532.66
2019-05-05T12:11:40.269Z,99546.41
2019-05-05T12:13:46.677Z,99550.58
2019-05-05T12:15:54.791Z,99546.61
2019-05-05T12:18:01.264Z,99548.64
2019-05-05T12:20:10.233Z,99543.81
2019-05-05T12:22:16.710Z,99547.35
2019-05-05T12:24:25.007Z,99535.49
2019-05-05T12:26:39.822Z,99540.59
2019-05-05T12:28:47.920Z,99538.20
2019-05-05T12:31:00.266Z,99530.56
2019-05-05T12:33:07.745Z,99543.76
2019-05-05T12:35:14.818Z,99530.45
2019-05-05T12:37:23.558Z,99538.05
2019-05-05T12:39:29.427Z,99535.89
2019-05-05T12:41:35.801Z,99550.19
2019-05-05T12:43:44.146Z,99548.36
2019-05-05T12:45:55.845Z,99548.36
2019-05-05T12:48:24.051Z,99543.87
2019-05-05T12:50:30.423Z,99547.75
2019-05-05T12:52:36.874Z,99530.80
2019-05-05T12:54:44.033Z,99524.06
2019-05-05T12:56:50.641Z,99536.52
2019-05-05T12:58:57.156Z,99532.63
2019-05-05T13:01:05.562Z,99533.52
2019-05-05T13:03:13.507Z,99528.14
2019-05-05T13:05:20.147Z,99533.20
2019-05-05T13:07:26.617Z,99537.96
2019-05-05T13:09:33.564Z,99533.22
2019-05-05T13:11:40.093Z,99538.38
2019-05-05T13:13:46.569Z,99539.42
2019-05-05T13:15:53.665Z,99543.06
2019-05-05T13:18:00.091Z,99541.23
2019-05-05T13:20:14.070Z,99560.63
2019-05-05T13:22:25.544Z,99552.28
2019-05-05T13:24:37.929Z,99551.87
2019-05-05T13:26:44.167Z,99547.48
2019-05-05T13:28:50.586Z,99559.76
2019-05-05T13:30:56.980Z,99548.31
2019-05-05T13:33:03.767Z,99550.52
2019-05-05T13:35:11.094Z,99548.73
2019-05-05T13:37:17.810Z,99545.95
2019-05-05T13:39:24.815Z,99551.64
2019-05-05T13:41:33.919Z,99554.80
2019-05-05T13:43:39.830Z,99551.31
2019-05-05T13:45:54.044Z,99555.22
2019-05-05T13:48:00.669Z,99550.42
2019-05-05T13:50:10.614Z,99551.37
2019-05-05T13:52:17.167Z,99554.98
2019-05-05T13:54:24.219Z,99548.80
2019-05-05T13:56:30.927Z,99550.08
2019-05-05T13:58:37.538Z,99544.24
2019-05-05T14:00:44.184Z,99548.54
2019-05-05T14:02:50.745Z,99546.78
2019-05-05T14:04:57.198Z,99547.64
2019-05-05T14:07:04.140Z,99548.44
2019-05-05T14:09:10.941Z,99550.32
2019-05-05T14:11:18.005Z,99546.78
2019-05-05T14:13:24.814Z,99533.89
2019-05-05T14:15:31.581Z,99546.12
2019-05-05T14:17:40.536Z,99540.38
2019-05-05T14:19:46.132Z,99542.61
2019-05-05T14:21:53.822Z,99546.04
2019-05-05T14:24:14.171Z,99549.74
2019-05-05T14:26:25.672Z,99542.72
2019-05-05T14:28:28.729Z,99549.98
2019-05-05T14:30:54.181Z,99541.15
2019-05-05T14:33:01.159Z,99554.36
2019-05-05T14:35:27.163Z,99547.30
2019-05-05T14:37:37.860Z,99548.98
2019-05-05T14:39:44.469Z,99547.28
2019-05-05T14:41:50.844Z,99527.34
2019-05-05T14:43:57.241Z,99534.88
2019-05-05T14:46:03.886Z,99534.41
2019-05-05T14:48:10.314Z,99534.85
2019-05-05T14:50:19.259Z,99547.72
2019-05-05T14:52:25.693Z,99546.45
2019-05-05T14:54:34.051Z,99550.50
2019-05-05T14:56:40.152Z,99554.05
2019-05-05T14:58:46.575Z,99550.56
2019-05-05T15:00:53.267Z,99554.53
2019-05-05T15:03:01.004Z,99552.27
2019-05-05T15:05:28.694Z,99550.95
2019-05-05T15:07:45.660Z,99551.83
2019-05-05T15:09:54.657Z,99559.70
2019-05-05T15:12:03.792Z,99551.76
2019-05-05T15:14:09.438Z,99556.59
2019-05-05T15:16:15.686Z,99552.61
2019-05-05T15:18:24.136Z,99552.59
2019-05-05T15:20:30.276Z,99540.59
2019-05-05T15:22:36.733Z,99552.13
2019-05-05T15:24:44.135Z,99558.44
2019-05-05T15:26:54.290Z,99556.67
2019-05-05T15:29:01.750Z,99553.61
2019-05-05T15:31:07.130Z,99550.58
2019-05-05T15:33:13.857Z,99551.08
2019-05-05T15:35:20.423Z,99547.05
2019-05-05T15:37:26.956Z,99548.38
2019-05-05T15:39:33.715Z,99549.31
2019-05-05T15:41:41.732Z,99555.98
2019-05-05T15:43:48.565Z,99555.09
2019-05-05T15:45:54.802Z,99559.49
2019-05-05T15:48:01.201Z,99548.92
2019-05-05T15:50:08.891Z,99564.35
2019-05-05T15:52:15.266Z,99562.14
2019-05-05T15:54:23.446Z,99552.45
2019-05-05T15:56:29.904Z,99555.05
2019-05-05T15:58:36.283Z,99555.93
2019-05-05T16:00:44.324Z,99558.18
2019-05-05T16:02:50.936Z,99561.30
2019-05-05T16:04:57.323Z,99559.14
2019-05-05T16:07:04.579Z,99564.39
2019-05-05T16:09:11.242Z,99556.94
2019-05-05T16:11:18.379Z,99559.58
2019-05-05T16:13:24.834Z,99553.84
2019-05-05T16:15:31.011Z,99556.97
2019-05-05T16:17:48.024Z,99565.78
2019-05-05T16:19:56.113Z,99552.55
2019-05-05T16:22:06.945Z,99555.20
2019-05-05T16:24:18.759Z,99559.60
2019-05-05T16:26:25.149Z,99552.58
2019-05-05T16:28:31.571Z,99544.23
2019-05-05T16:30:39.172Z,99549.08
2019-05-05T16:32:45.596Z,99542.03
2019-05-05T16:34:54.739Z,99551.73
2019-05-05T16:37:00.095Z,99550.41
2019-05-05T16:39:08.325Z,99549.07
2019-05-05T16:41:16.349Z,99545.13
2019-05-05T16:43:24.685Z,99539.39
2019-05-05T16:45:30.963Z,99541.62
2019-05-05T16:47:37.621Z,99551.30
2019-05-05T16:49:44.507Z,99547.33
2019-05-05T16:51:54.424Z,99543.80
2019-05-05T16:54:04.604Z,99545.09
2019-05-05T16:56:15.730Z,99556.98
2019-05-05T16:58:24.070Z,99544.66
2019-05-05T17:00:31.424Z,99553.90
2019-05-05T17:02:39.077Z,99551.26
2019-05-05T17:04:45.469Z,99561.38
2019-05-05T17:06:51.891Z,99558.28
2019-05-05T17:08:58.271Z,99565.33
2019-05-05T17:11:04.804Z,99564.88
2019-05-05T17:13:13.618Z,99564.43
2019-05-05T17:15:35.207Z,99571.02
2019-05-05T17:17:49.725Z,99563.12
2019-05-05T17:19:59.052Z,99570.14
2019-05-05T17:22:12.945Z,99568.36
2019-05-05T17:24:19.457Z,99568.78
2019-05-05T17:26:25.859Z,99559.13
2019-05-05T17:28:33.494Z,99555.15
2019-05-05T17:30:41.133Z,99559.53
2019-05-05T17:32:47.622Z,99558.64
2019-05-05T17:34:57.199Z,99560.84
2019-05-05T17:37:04.367Z,99564.80
2019-05-05T17:39:10.943Z,99564.81
2019-05-05T17:41:31.187Z,99562.16
2019-05-05T17:43:48.522Z,99563.47
2019-05-05T17:45:55.147Z,99566.97
2019-05-05T17:48:06.189Z,99564.75
2019-05-05T17:50:29.263Z,99561.69
2019-05-05T17:52:38.174Z,99564.74
2019-05-05T17:54:46.262Z,99566.47
2019-05-05T17:56:54.946Z,99570.00
2019-05-05T17:59:00.824Z,99569.97
2019-05-05T18:01:07.203Z,99571.26
2019-05-05T18:03:13.667Z,99576.09
2019-05-05T18:05:21.838Z,99583.98
2019-05-05T18:07:35.914Z,99578.67
2019-05-05T18:10:00.353Z,99576.02
2019-05-05T18:12:20.083Z,99569.83
2019-05-05T18:14:28.178Z,99571.12
2019-05-05T18:16:35.356Z,99571.05
2019-05-05T18:18:41.786Z,99575.44
2019-05-05T18:20:48.227Z,99570.10
2019-05-05T18:22:54.622Z,99582.37
2019-05-05T18:25:01.053Z,99579.23
2019-05-05T18:27:07.504Z,99580.95
2019-05-05T18:29:14.577Z,99580.46
2019-05-05T18:31:21.178Z,99582.61
2019-05-05T18:33:27.579Z,99584.35
2019-05-05T18:35:34.042Z,99589.98
2019-05-05T18:37:40.443Z,99595.63
2019-05-05T18:39:46.839Z,99596.93
2019-05-05T18:41:56.319Z,99598.63
2019-05-05T18:44:04.386Z,99600.36
2019-05-05T18:46:10.896Z,99595.04
2019-05-05T18:48:17.364Z,99597.61
2019-05-05T18:50:24.372Z,99601.53
2019-05-05T18:52:30.944Z,99594.92
2019-05-05T18:54:37.337Z,99604.09
2019-05-05T18:56:44.105Z,99607.13
2019-05-05T18:58:51.113Z,99605.33
2019-05-05T19:01:07.956Z,99605.70
2019-05-05T19:03:20.562Z,99610.04
2019-05-05T19:05:33.972Z,99615.70
2019-05-05T19:08:00.252Z,99613.89
2019-05-05T19:10:08.675Z,99620.41
2019-05-05T19:12:15.072Z,99620.33
2019-05-05T19:14:21.469Z,99621.15
2019-05-05T19:16:27.945Z,99629.45
2019-05-05T19:18:34.462Z,99624.58
2019-05-05T19:20:46.708Z,99628.03
2019-05-05T19:22:54.764Z,99627.54
2019-05-05T19:25:04.278Z,99638.44
2019-05-05T19:27:11.346Z,99631.34
2019-05-05T19:29:17.825Z,99632.16
2019-05-05T19:31:24.223Z,99636.45
2019-05-05T19:33:30.693Z,99636.41
2019-05-05T19:35:44.215Z,99631.10
2019-05-05T19:37:45.202Z,99635.05
2019-05-05T19:39:51.602Z,99637.66
2019-05-05T19:41:58.108Z,99641.55
2019-05-05T19:44:05.084Z,99638.47
2019-05-05T19:46:15.753Z,99639.33
2019-05-05T19:48:21.368Z,99637.09
2019-05-05T19:50:29.399Z,99634.00
2019-05-05T19:52:35.810Z,99636.14
2019-05-05T19:54:47.134Z,99640.48
2019-05-05T19:56:50.395Z,99636.89
2019-05-05T19:59:01.411Z,99635.98
2019-05-05T20:01:05.362Z,99639.45
2019-05-05T20:03:11.744Z,99638.05
2019-05-05T20:05:18.419Z,99635.80
2019-05-05T20:07:24.984Z,99633.16
2019-05-05T20:09:31.447Z,99632.61
2019-05-05T20:11:39.494Z,99636.95
2019-05-05T20:13:45.922Z,99640.80
2019-05-05T20:15:53.937Z,99636.81
2019-05-05T20:18:01.551Z,99642.41
2019-05-05T20:20:09.644Z,99638.84
2019-05-05T20:22:16.095Z,99641.38
2019-05-05T20:24:23.981Z,99644.38
2019-05-05T20:26:34.693Z,99642.12
2019-05-05T20:28:41.512Z,99640.80
2019-05-05T20:30:48.056Z,99637.75
2019-05-05T20:32:57.418Z,99643.83
2019-05-05T20:35:06.128Z,99642.00
2019-05-05T20:37:15.280Z,99645.91
2019-05-05T20:39:21.727Z,99642.85
2019-05-05T20:41:28.163Z,99646.30
2019-05-05T20:43:36.148Z,99647.58
2019-05-05T20:45:44.251Z,99640.14
2019-05-05T20:47:54.440Z,99649.75
2019-05-05T20:50:01.265Z,99645.81
2019-05-05T20:52:09.145Z,99650.14
2019-05-05T20:54:15.694Z,99652.31
2019-05-05T20:56:22.132Z,99650.54
2019-05-05T20:58:28.536Z,99656.67
2019-05-05T21:00:34.996Z,99655.81
2019-05-05T21:02:43.451Z,99657.98
2019-05-05T21:04:49.546Z,99657.49
2019-05-05T21:06:56.004Z,99663.13
2019-05-05T21:09:04.304Z,99662.22
2019-05-05T21:11:13.999Z,99662.16
2019-05-05T21:13:20.076Z,99658.55
2019-05-05T21:15:26.456Z,99658.84
2019-05-05T21:17:33.761Z,99661.83
2019-05-05T21:19:40.394Z,99664.77
2019-05-05T21:21:48.438Z,99668.21
2019-05-05T21:23:56.464Z,99661.55
2019-05-05T21:26:04.488Z,99660.99
2019-05-05T21:28:10.871Z,99667.52
2019-05-05T21:30:17.337Z,99662.59
2019-05-05T21:32:25.348Z,99662.52
2019-05-05T21:34:34.124Z,99665.06
2019-05-05T21:36:39.936Z,99670.66
2019-05-05T21:38:46.459Z,99670.98
2019-05-05T21:40:52.957Z,99677.42
2019-05-05T21:42:59.364Z,99668.09
2019-05-05T21:45:07.648Z,99672.38
2019-05-05T21:47:14.312Z,99667.52
2019-05-05T21:49:20.822Z,99666.56
2019-05-05T21:51:28.863Z,99673.92
2019-05-05T21:53:36.889Z,99675.16
2019-05-05T21:55:56.794Z,99678.16
2019-05-05T21:58:25.295Z,99675.08
2019-05-05T22:00:44.865Z,99681.59
2019-05-05T22:02:51.886Z,99675.84
2019-05-05T22:04:58.331Z,99683.28
2019-05-05T22:07:04.859Z,99680.66
2019-05-05T22:09:11.496Z,99680.16
2019-05-05T22:11:17.950Z,99681.42
2019-05-05T22:13:24.317Z,99683.09
2019-05-05T22:15:30.921Z,99677.34
2019-05-05T22:17:37.368Z,99684.69
2019-05-05T22:20:04.071Z,99678.53
2019-05-05T22:22:11.508Z,99676.30
2019-05-05T22:24:19.177Z,99686.69
2019-05-05T22:26:25.549Z,99682.29
2019-05-05T22:28:33.653Z,99685.84
2019-05-05T22:30:40.247Z,99680.56
2019-05-05T22:32:46.693Z,99684.95
2019-05-05T22:34:54.286Z,99681.02
2019-05-05T22:37:00.682Z,99670.47
2019-05-05T22:39:11.176Z,99668.23
2019-05-05T22:41:17.641Z,99666.89
2019-05-05T22:43:24.035Z,99668.53
2019-05-05T22:45:30.415Z,99660.18
2019-05-05T22:47:36.835Z,99661.02
2019-05-05T22:49:44.366Z,99666.21
2019-05-05T22:51:51.098Z,99663.09
2019-05-05T22:54:00.457Z,99663.94
2019-05-05T22:56:08.201Z,99667.44
2019-05-05T22:58:14.586Z,99663.94
2019-05-05T23:00:28.611Z,99664.41
2019-05-05T23:02:34.608Z,99667.44
2019-05-05T23:04:48.611Z,99665.63
2019-05-05T23:06:59.655Z,99666.05
2019-05-05T23:09:10.775Z,99669.98
2019-05-05T23:11:17.618Z,99663.05
2019-05-05T23:13:24.180Z,99667.02
2019-05-05T23:15:30.745Z,99667.91
2019-05-05T23:17:38.762Z,99671.45
2019-05-05T23:19:49.890Z,99666.67
2019-05-05T23:21:57.991Z,99669.72
2019-05-05T23:24:08.882Z,99668.41
2019-05-05T23:26:25.933Z,99677.11
2019-05-05T23:28:33.883Z,99673.95
2019-05-05T23:30:41.942Z,99673.02
2019-05-05T23:32:48.823Z,99668.63
2019-05-05T23:34:55.200Z,99671.20
2019-05-05T23:37:01.566Z,99675.00
2019-05-05T23:39:08.854Z,99671.41
2019-05-05T23:41:15.218Z,99670.43
2019-05-05T23:43:21.614Z,99667.64
2019-05-05T23:45:28.024Z,99667.89
2019-05-05T23:47:34.612Z,99670.28
2019-05-05T23:49:41.197Z,99679.25
2019-05-05T23:51:47.628Z,99676.38
2019-05-05T23:53:55.128Z,99673.98
2019-05-05T23:56:03.849Z,99679.08
2019-05-05T23:58:09.930Z,99685.05
